createdAt,value
2022-07-28T00:01:10.794Z,3.72
2022-07-28T00:03:37.754Z,3.75
2022-07-28T00:06:04.788Z,3.75
2022-07-28T00:08:31.795Z,4.00
2022-07-28T00:10:58.790Z,3.08
2022-07-28T00:13:25.838Z,3.95
2022-07-28T00:15:52.860Z,4.07
2022-07-28T00:18:19.941Z,3.50
2022-07-28T00:20:46.961Z,2.92
2022-07-28T00:23:13.992Z,3.38
2022-07-28T00:25:41.063Z,4.07
2022-07-28T00:28:08.052Z,3.53
2022-07-28T00:30:35.103Z,4.10
2022-07-28T00:33:02.387Z,3.63
2022-07-28T00:35:31.862Z,4.13
2022-07-28T00:38:00.305Z,4.38
2022-07-28T00:40:47.582Z,4.10
2022-07-28T00:43:15.372Z,3.97
2022-07-28T00:45:42.722Z,3.58
2022-07-28T00:48:09.629Z,4.43
2022-07-28T00:50:39.669Z,3.80
2022-07-28T00:53:08.860Z,3.53
2022-07-28T00:56:03.625Z,3.72
2022-07-28T00:58:27.159Z,4.05
2022-07-28T01:00:54.975Z,2.60
2022-07-28T01:03:23.251Z,2.75
2022-07-28T01:05:59.055Z,2.17
2022-07-28T01:09:04.734Z,2.38
2022-07-28T01:11:43.037Z,4.47
2022-07-28T01:14:49.956Z,2.50
2022-07-28T01:17:31.850Z,2.65
2022-07-28T01:20:11.731Z,2.40
2022-07-28T01:23:10.931Z,2.38
2022-07-28T01:25:48.517Z,2.50
2022-07-28T01:28:28.129Z,2.63
2022-07-28T01:30:58.004Z,2.45
2022-07-28T01:33:49.429Z,1.98
2022-07-28T01:36:21.235Z,2.20
2022-07-28T01:38:49.664Z,2.30
2022-07-28T01:41:20.577Z,2.47
2022-07-28T01:43:54.823Z,2.88
2022-07-28T01:46:22.832Z,3.38
2022-07-28T01:48:51.144Z,2.22
2022-07-28T01:51:20.313Z,2.85
2022-07-28T01:53:49.349Z,2.00
2022-07-28T01:56:19.573Z,2.30
2022-07-28T01:58:49.419Z,2.15
2022-07-28T02:01:18.722Z,2.40
2022-07-28T02:03:50.400Z,3.35
2022-07-28T02:06:20.351Z,2.22
2022-07-28T02:08:49.381Z,2.20
2022-07-28T02:11:35.081Z,2.53
2022-07-28T02:14:03.156Z,2.38
2022-07-28T02:16:31.493Z,2.63
2022-07-28T02:19:00.868Z,2.63
2022-07-28T02:21:31.313Z,2.47
2022-07-28T02:24:00.207Z,2.55
2022-07-28T02:26:37.109Z,2.33
2022-07-28T02:29:14.916Z,2.33
2022-07-28T02:32:26.790Z,2.70
2022-07-28T02:34:55.568Z,3.28
2022-07-28T02:37:23.611Z,2.97
2022-07-28T02:40:00.034Z,2.80
2022-07-28T02:42:32.981Z,2.60
2022-07-28T02:45:03.149Z,2.92
2022-07-28T02:47:37.881Z,2.80
2022-07-28T02:52:33.595Z,2.78
2022-07-28T02:55:02.766Z,2.50
2022-07-28T02:57:31.597Z,2.67
2022-07-28T02:59:58.944Z,2.80
2022-07-28T03:02:30.866Z,2.88
2022-07-28T03:04:59.693Z,2.65
2022-07-28T03:07:31.925Z,3.20
2022-07-28T03:10:00.440Z,3.90
2022-07-28T03:12:27.831Z,3.53
2022-07-28T03:14:55.017Z,4.00
2022-07-28T03:17:22.774Z,3.10
2022-07-28T03:19:49.775Z,3.03
2022-07-28T03:22:17.636Z,3.05
2022-07-28T03:24:53.353Z,2.95
2022-07-28T03:27:28.022Z,3.80
2022-07-28T03:30:05.406Z,2.85
2022-07-28T03:32:37.361Z,3.42
2022-07-28T03:35:06.574Z,3.40
2022-07-28T03:38:01.660Z,4.03
2022-07-28T03:40:32.162Z,3.20
2022-07-28T03:43:03.537Z,3.20
2022-07-28T03:45:33.200Z,3.28
2022-07-28T03:48:00.960Z,3.88
2022-07-28T03:50:29.964Z,3.03
2022-07-28T03:52:58.065Z,3.35
2022-07-28T03:55:25.796Z,3.00
2022-07-28T03:57:53.153Z,3.20
2022-07-28T04:00:21.133Z,3.38
2022-07-28T04:02:48.214Z,3.28
2022-07-28T04:05:18.146Z,3.70
2022-07-28T04:07:48.859Z,3.03
2022-07-28T04:10:17.529Z,3.50
2022-07-28T04:12:56.717Z,3.17
2022-07-28T04:15:25.526Z,3.65
2022-07-28T04:17:54.300Z,3.63
2022-07-28T04:20:22.711Z,3.90
2022-07-28T04:22:50.603Z,4.25
2022-07-28T04:25:19.186Z,3.65
2022-07-28T04:27:47.010Z,4.18
2022-07-28T04:30:19.370Z,4.13
2022-07-28T04:32:48.968Z,4.63
2022-07-28T04:35:17.622Z,4.22
2022-07-28T04:37:46.109Z,4.15
2022-07-28T04:40:14.502Z,4.43
2022-07-28T04:42:42.133Z,4.35
2022-07-28T04:45:11.862Z,5.22
2022-07-28T04:47:39.295Z,4.30
2022-07-28T04:50:08.357Z,4.40
2022-07-28T04:52:36.098Z,3.60
2022-07-28T04:55:03.936Z,4.10
2022-07-28T04:57:30.990Z,3.10
2022-07-28T05:00:00.336Z,3.50
2022-07-28T05:02:27.611Z,3.78
2022-07-28T05:04:54.736Z,3.67
2022-07-28T05:07:21.762Z,4.13
2022-07-28T05:09:48.699Z,3.67
2022-07-28T05:12:15.730Z,3.78
2022-07-28T05:14:42.716Z,4.28
2022-07-28T05:17:09.824Z,3.92
2022-07-28T05:19:37.104Z,4.07
2022-07-28T05:22:04.496Z,3.85
2022-07-28T05:24:32.133Z,3.33
2022-07-28T05:26:59.097Z,3.28
2022-07-28T05:29:26.091Z,2.10
2022-07-28T05:32:17.395Z,2.72
2022-07-28T05:34:45.946Z,2.70
2022-07-28T05:37:12.832Z,2.85
2022-07-28T05:39:39.781Z,2.45
2022-07-28T05:42:06.889Z,1.95
2022-07-28T05:44:38.270Z,1.65
2022-07-28T05:47:06.603Z,1.30
2022-07-28T05:49:33.962Z,1.35
2022-07-28T05:52:00.926Z,1.50
2022-07-28T05:54:28.288Z,1.38
2022-07-28T05:56:55.351Z,1.45
2022-07-28T05:59:22.304Z,1.75
2022-07-28T06:01:49.262Z,1.80
2022-07-28T06:04:27.112Z,1.80
2022-07-28T06:06:55.334Z,1.40
2022-07-28T06:09:22.263Z,1.52
2022-07-28T06:11:50.845Z,1.50
2022-07-28T06:14:18.945Z,1.50
2022-07-28T06:16:51.259Z,2.03
2022-07-28T06:19:19.308Z,1.98
2022-07-28T06:21:47.720Z,1.45
2022-07-28T06:24:15.336Z,1.20
2022-07-28T06:26:44.968Z,1.98
2022-07-28T06:29:12.631Z,1.40
2022-07-28T06:31:39.904Z,1.45
2022-07-28T06:34:07.126Z,1.33
2022-07-28T06:36:34.117Z,1.40
2022-07-28T06:39:01.110Z,1.80
2022-07-28T06:41:28.904Z,1.63
2022-07-28T06:43:56.230Z,1.48
2022-07-28T06:46:23.209Z,1.38
2022-07-28T06:48:50.324Z,1.48
2022-07-28T06:51:19.977Z,1.00
2022-07-28T06:53:48.692Z,1.40
2022-07-28T06:56:16.893Z,1.30
2022-07-28T06:58:47.356Z,1.33
2022-07-28T07:01:15.471Z,1.40
2022-07-28T07:03:43.798Z,1.25
2022-07-28T07:06:11.303Z,1.70
2022-07-28T07:08:38.541Z,1.30
2022-07-28T07:11:05.579Z,1.30
2022-07-28T07:13:33.276Z,1.00
2022-07-28T07:16:00.882Z,1.30
2022-07-28T07:18:28.082Z,1.35
2022-07-28T07:20:58.065Z,1.67
2022-07-28T07:23:25.103Z,1.60
2022-07-28T07:25:52.082Z,1.30
2022-07-28T07:28:19.196Z,1.27
2022-07-28T07:30:46.138Z,1.27
2022-07-28T07:33:13.140Z,1.30
2022-07-28T07:35:40.049Z,1.15
2022-07-28T07:38:07.207Z,1.90
2022-07-28T07:40:34.290Z,0.95
2022-07-28T07:43:01.253Z,1.20
2022-07-28T07:45:28.321Z,1.30
2022-07-28T07:47:55.249Z,1.20
2022-07-28T07:50:22.560Z,1.48
2022-07-28T07:52:52.314Z,1.20
2022-07-28T07:55:19.402Z,1.60
2022-07-28T07:57:46.356Z,1.25
2022-07-28T08:00:28.856Z,1.35
2022-07-28T08:02:57.542Z,1.55
2022-07-28T08:05:36.057Z,1.40
2022-07-28T08:08:05.376Z,1.48
2022-07-28T08:10:33.643Z,1.33
2022-07-28T08:13:00.687Z,1.63
2022-07-28T08:15:27.781Z,1.67
2022-07-28T08:17:54.890Z,1.60
2022-07-28T08:20:21.984Z,1.20
2022-07-28T08:22:54.005Z,1.40
2022-07-28T08:25:21.817Z,1.38
2022-07-28T08:27:49.040Z,1.23
2022-07-28T08:30:22.369Z,1.17
2022-07-28T08:32:57.026Z,1.25
2022-07-28T08:35:35.091Z,1.17
2022-07-28T08:38:06.570Z,1.48
2022-07-28T08:40:36.393Z,1.55
2022-07-28T08:43:12.308Z,1.30
2022-07-28T08:45:42.504Z,1.40
2022-07-28T08:48:11.751Z,1.38
2022-07-28T08:50:39.838Z,1.27
2022-07-28T08:53:08.134Z,1.38
2022-07-28T08:55:36.286Z,1.73
2022-07-28T08:58:04.037Z,1.50
2022-07-28T09:00:31.468Z,1.42
2022-07-28T09:02:59.643Z,1.08
2022-07-28T09:05:27.784Z,1.08
2022-07-28T09:07:55.675Z,1.30
2022-07-28T09:10:23.254Z,1.55
2022-07-28T09:12:50.594Z,1.42
2022-07-28T09:15:17.612Z,1.38
2022-07-28T09:17:45.376Z,1.27
2022-07-28T09:20:12.726Z,1.17
2022-07-28T09:23:43.466Z,0.85
2022-07-28T09:26:11.375Z,1.25
2022-07-28T09:28:58.967Z,1.05
2022-07-28T09:31:27.831Z,1.20
2022-07-28T09:34:03.077Z,1.63
2022-07-28T09:36:40.930Z,1.10
2022-07-28T09:39:08.528Z,1.77
2022-07-28T09:41:49.262Z,1.10
2022-07-28T09:44:20.399Z,1.10
2022-07-28T09:46:47.669Z,1.30
2022-07-28T09:49:15.056Z,1.02
2022-07-28T09:51:42.503Z,1.60
2022-07-28T09:54:15.232Z,1.30
2022-07-28T09:56:44.742Z,1.17
2022-07-28T09:59:14.954Z,1.13
2022-07-28T10:02:01.734Z,1.58
2022-07-28T10:04:34.857Z,1.33
2022-07-28T10:07:14.378Z,0.85
2022-07-28T10:09:42.209Z,1.02
2022-07-28T10:12:24.499Z,1.10
2022-07-28T10:14:54.077Z,1.08
2022-07-28T10:17:34.565Z,1.10
2022-07-28T10:20:06.623Z,1.00
2022-07-28T10:22:39.550Z,1.42
2022-07-28T10:25:10.715Z,1.10
2022-07-28T10:27:42.792Z,1.58
2022-07-28T10:30:10.939Z,0.80
2022-07-28T10:32:45.854Z,1.17
2022-07-28T10:35:15.325Z,1.10
2022-07-28T10:38:04.239Z,1.23
2022-07-28T10:40:42.097Z,0.98
2022-07-28T10:43:09.139Z,0.85
2022-07-28T10:46:03.990Z,1.10
2022-07-28T10:48:25.575Z,1.15
2022-07-28T10:50:54.986Z,1.20
2022-07-28T10:53:44.936Z,1.25
2022-07-28T10:56:23.943Z,1.10
2022-07-28T10:59:04.851Z,1.33
2022-07-28T11:01:49.057Z,1.73
2022-07-28T11:04:52.458Z,1.27
2022-07-28T11:07:20.920Z,1.00
2022-07-28T11:09:48.879Z,0.90
2022-07-28T11:12:16.814Z,1.13
2022-07-28T11:14:44.999Z,0.88
2022-07-28T11:17:17.092Z,1.13
2022-07-28T11:20:16.420Z,0.98
2022-07-28T11:22:40.328Z,1.00
2022-07-28T11:25:19.089Z,1.30
2022-07-28T11:27:50.036Z,1.20
2022-07-28T11:30:22.558Z,1.00
2022-07-28T11:32:53.619Z,1.58
2022-07-28T11:35:27.650Z,1.05
2022-07-28T11:38:03.826Z,1.30
2022-07-28T11:40:39.715Z,0.90
2022-07-28T11:43:31.989Z,1.30
2022-07-28T11:46:09.717Z,1.50
2022-07-28T11:48:39.782Z,1.02
2022-07-28T11:51:06.908Z,1.17
2022-07-28T11:53:39.046Z,1.10
2022-07-28T11:56:14.373Z,1.58
2022-07-28T11:58:42.903Z,1.20
2022-07-28T12:01:18.171Z,1.10
2022-07-28T12:03:55.667Z,1.33
2022-07-28T12:06:35.332Z,1.15
2022-07-28T12:09:07.542Z,1.17
2022-07-28T12:11:36.734Z,1.88
2022-07-28T12:14:10.383Z,1.20
2022-07-28T12:16:39.906Z,1.05
2022-07-28T12:19:08.429Z,0.80
2022-07-28T12:21:46.497Z,1.38
2022-07-28T12:24:45.518Z,1.42
2022-07-28T12:27:15.378Z,1.42
2022-07-28T12:29:44.069Z,1.55
2022-07-28T12:32:17.613Z,0.98
2022-07-28T12:34:45.557Z,1.48
2022-07-28T12:37:14.043Z,1.13
2022-07-28T12:39:43.463Z,1.27
2022-07-28T12:42:12.323Z,1.25
2022-07-28T12:44:44.298Z,0.80
2022-07-28T12:47:12.926Z,1.20
2022-07-28T12:49:43.017Z,1.42
2022-07-28T12:52:22.288Z,1.10
2022-07-28T12:54:54.414Z,1.35
2022-07-28T12:57:48.607Z,1.10
2022-07-28T13:00:21.792Z,1.05
2022-07-28T13:02:51.680Z,1.17
2022-07-28T13:05:55.573Z,1.08
2022-07-28T13:08:27.547Z,1.02
2022-07-28T13:10:58.847Z,1.50
2022-07-28T13:13:26.891Z,1.13
2022-07-28T13:16:13.262Z,1.08
2022-07-28T13:18:45.133Z,1.10
2022-07-28T13:21:13.267Z,1.02
2022-07-28T13:23:40.183Z,1.10
2022-07-28T13:26:07.622Z,1.20
2022-07-28T13:28:35.124Z,1.10
2022-07-28T13:31:02.548Z,1.48
2022-07-28T13:33:29.957Z,0.90
2022-07-28T13:35:57.256Z,1.38
2022-07-28T13:38:24.203Z,1.00
2022-07-28T13:40:51.154Z,0.82
2022-07-28T13:43:18.283Z,1.20
2022-07-28T13:45:47.661Z,1.17
2022-07-28T13:48:14.645Z,1.23
2022-07-28T13:50:41.659Z,1.30
2022-07-28T13:53:27.589Z,1.05
2022-07-28T13:56:00.082Z,1.40
2022-07-28T13:58:27.208Z,1.10
2022-07-28T14:00:54.170Z,1.10
2022-07-28T14:03:21.522Z,0.82
2022-07-28T14:05:48.673Z,1.00
2022-07-28T14:08:20.866Z,0.90
2022-07-28T14:10:56.295Z,1.20
2022-07-28T14:13:23.292Z,1.10
2022-07-28T14:16:02.392Z,1.27
2022-07-28T14:18:34.029Z,0.80
2022-07-28T14:21:01.139Z,0.77
2022-07-28T14:23:28.059Z,1.10
2022-07-28T14:26:07.412Z,0.47
2022-07-28T14:28:41.959Z,0.98
2022-07-28T14:31:08.953Z,0.88
2022-07-28T14:33:44.920Z,1.30
2022-07-28T14:36:13.457Z,1.23
2022-07-28T14:38:53.087Z,1.00
2022-07-28T14:41:20.758Z,1.15
2022-07-28T14:43:47.748Z,1.10
2022-07-28T14:46:19.208Z,1.20
2022-07-28T14:48:48.480Z,0.95
2022-07-28T14:51:15.550Z,0.80
2022-07-28T14:53:49.853Z,0.98
2022-07-28T14:56:18.889Z,0.70
2022-07-28T14:58:45.856Z,0.80
2022-07-28T15:01:12.804Z,0.63
2022-07-28T15:03:43.088Z,1.25
2022-07-28T15:06:11.010Z,1.10
2022-07-28T15:08:38.000Z,1.58
2022-07-28T15:11:04.982Z,0.68
2022-07-28T15:13:31.903Z,1.67
2022-07-28T15:16:01.613Z,0.95
2022-07-28T15:18:28.634Z,0.80
2022-07-28T15:20:56.362Z,0.95
2022-07-28T15:23:24.472Z,0.93
2022-07-28T15:25:53.295Z,1.90
2022-07-28T15:28:20.696Z,0.82
2022-07-28T15:30:52.692Z,0.98
2022-07-28T15:33:20.591Z,0.98
2022-07-28T15:35:57.775Z,1.30
2022-07-28T15:38:31.645Z,1.00
2022-07-28T15:40:59.297Z,0.95
2022-07-28T15:43:27.129Z,1.17
2022-07-28T15:45:56.475Z,0.90
2022-07-28T15:48:23.705Z,1.13
2022-07-28T15:50:50.793Z,0.90
2022-07-28T15:53:18.112Z,0.73
2022-07-28T15:55:50.508Z,0.93
2022-07-28T15:58:18.581Z,1.00
2022-07-28T16:00:46.161Z,0.80
2022-07-28T16:03:13.500Z,1.20
2022-07-28T16:05:40.608Z,0.90
2022-07-28T16:08:07.751Z,0.93
2022-07-28T16:10:34.655Z,1.02
2022-07-28T16:13:01.746Z,1.30
2022-07-28T16:15:28.693Z,1.25
2022-07-28T16:17:56.163Z,1.40
2022-07-28T16:20:24.524Z,1.10
2022-07-28T16:22:51.843Z,1.33
2022-07-28T16:25:20.805Z,1.02
2022-07-28T16:27:48.784Z,0.88
2022-07-28T16:30:17.388Z,1.23
2022-07-28T16:32:44.628Z,0.93
2022-07-28T16:35:13.299Z,1.38
2022-07-28T16:37:40.737Z,0.90
2022-07-28T16:40:09.343Z,0.80
2022-07-28T16:42:36.546Z,1.08
2022-07-28T16:45:04.771Z,0.70
2022-07-28T16:47:31.824Z,1.63
2022-07-28T16:49:58.710Z,1.30
2022-07-28T16:52:25.679Z,1.40
2022-07-28T16:54:52.586Z,1.52
2022-07-28T16:57:19.518Z,1.30
2022-07-28T16:59:47.806Z,1.13
2022-07-28T17:02:16.829Z,1.00
2022-07-28T17:04:43.970Z,0.90
2022-07-28T17:07:11.154Z,1.15
2022-07-28T17:09:39.285Z,0.93
2022-07-28T17:12:07.603Z,1.42
2022-07-28T17:14:34.510Z,1.40
2022-07-28T17:17:01.562Z,1.25
2022-07-28T17:19:32.967Z,0.80
2022-07-28T17:22:01.277Z,1.15
2022-07-28T17:24:28.401Z,0.98
2022-07-28T17:29:43.155Z,1.10
2022-07-28T17:32:10.424Z,1.35
2022-07-28T17:34:37.763Z,1.25
2022-07-28T17:37:05.295Z,0.88
2022-07-28T17:39:32.257Z,1.13
2022-07-28T17:41:59.277Z,1.20
2022-07-28T17:44:26.212Z,1.10
2022-07-28T17:46:53.194Z,1.55
2022-07-28T17:49:20.817Z,1.23
2022-07-28T17:51:47.872Z,1.30
2022-07-28T17:54:16.790Z,1.20
2022-07-28T17:56:44.343Z,1.17
2022-07-28T17:59:11.265Z,1.25
2022-07-28T18:01:42.298Z,1.00
2022-07-28T18:04:12.279Z,1.40
2022-07-28T18:06:40.414Z,1.40
2022-07-28T18:09:11.689Z,1.00
2022-07-28T18:11:57.822Z,1.17
2022-07-28T18:14:30.420Z,1.17
2022-07-28T18:16:58.329Z,1.10
2022-07-28T18:19:27.077Z,1.35
2022-07-28T18:21:55.179Z,1.08
2022-07-28T18:24:22.773Z,1.55
2022-07-28T18:26:51.666Z,1.55
2022-07-28T18:29:20.967Z,1.17
2022-07-28T18:31:49.694Z,1.50
2022-07-28T18:34:17.152Z,1.15
2022-07-28T18:36:44.855Z,1.23
2022-07-28T18:39:12.507Z,1.40
2022-07-28T18:41:46.919Z,1.45
2022-07-28T18:44:17.241Z,1.95
2022-07-28T18:46:45.272Z,1.98
2022-07-28T18:49:12.612Z,2.08
2022-07-28T18:51:39.661Z,1.60
2022-07-28T18:54:12.089Z,1.77
2022-07-28T18:56:39.144Z,1.48
2022-07-28T18:59:06.072Z,1.45
2022-07-28T19:01:33.114Z,1.52
2022-07-28T19:04:00.731Z,1.30
2022-07-28T19:06:29.427Z,1.33
2022-07-28T19:08:56.523Z,1.45
2022-07-28T19:11:23.592Z,1.50
2022-07-28T19:13:50.696Z,1.25
2022-07-28T19:16:19.097Z,1.00
2022-07-28T19:18:46.234Z,1.70
2022-07-28T19:21:13.647Z,1.30
2022-07-28T19:23:40.668Z,1.30
2022-07-28T19:26:07.639Z,1.13
2022-07-28T19:28:34.829Z,1.38
2022-07-28T19:31:10.297Z,1.75
2022-07-28T19:33:42.918Z,1.00
2022-07-28T19:36:13.811Z,1.40
2022-07-28T19:38:44.568Z,1.10
2022-07-28T19:41:15.790Z,1.23
2022-07-28T19:43:42.913Z,1.55
2022-07-28T19:46:10.908Z,1.15
2022-07-28T19:48:38.435Z,0.90
2022-07-28T19:51:06.203Z,1.10
2022-07-28T19:53:34.551Z,1.13
2022-07-28T19:56:08.897Z,1.40
2022-07-28T19:58:36.467Z,1.23
2022-07-28T20:01:05.494Z,1.08
2022-07-28T20:04:03.021Z,1.38
2022-07-28T20:06:24.596Z,0.90
2022-07-28T20:08:53.433Z,2.15
2022-07-28T20:11:21.542Z,1.83
2022-07-28T20:14:06.037Z,1.40
2022-07-28T20:16:33.270Z,1.15
2022-07-28T20:19:00.605Z,1.30
2022-07-28T20:21:27.903Z,1.25
2022-07-28T20:23:56.674Z,1.50
2022-07-28T20:26:29.006Z,2.10
2022-07-28T20:29:01.196Z,1.23
2022-07-28T20:31:28.947Z,1.30
2022-07-28T20:33:56.982Z,1.05
2022-07-28T20:36:29.141Z,1.00
2022-07-28T20:38:57.438Z,1.40
2022-07-28T20:41:24.475Z,1.10
2022-07-28T20:44:11.319Z,0.98
2022-07-28T20:46:38.487Z,1.52
2022-07-28T20:49:05.517Z,1.20
2022-07-28T20:51:32.620Z,1.40
2022-07-28T20:53:59.763Z,1.30
2022-07-28T20:56:26.761Z,0.80
2022-07-28T20:58:53.731Z,1.50
2022-07-28T21:01:23.488Z,1.48
2022-07-28T21:03:51.769Z,1.10
2022-07-28T21:06:19.294Z,1.40
2022-07-28T21:08:47.524Z,1.58
2022-07-28T21:11:14.504Z,1.35
2022-07-28T21:13:41.577Z,1.00
2022-07-28T21:16:08.525Z,1.30
2022-07-28T21:18:38.707Z,1.70
2022-07-28T21:21:05.717Z,1.38
2022-07-28T21:23:32.667Z,1.23
2022-07-28T21:25:59.603Z,1.58
2022-07-28T21:28:45.111Z,1.20
2022-07-28T21:31:12.374Z,1.20
2022-07-28T21:33:39.422Z,1.33
2022-07-28T21:36:06.682Z,1.35
2022-07-28T21:38:33.738Z,1.63
2022-07-28T21:41:00.754Z,1.70
2022-07-28T21:43:28.096Z,1.50
2022-07-28T21:45:55.079Z,1.20
2022-07-28T21:48:25.051Z,1.15
2022-07-28T21:50:53.084Z,0.90
2022-07-28T21:53:20.447Z,1.38
2022-07-28T21:55:48.080Z,1.00
2022-07-28T21:58:16.583Z,1.45
2022-07-28T22:00:43.860Z,1.08
2022-07-28T22:03:11.568Z,1.35
2022-07-28T22:05:38.919Z,1.33
2022-07-28T22:08:05.935Z,1.00
2022-07-28T22:10:32.900Z,1.33
2022-07-28T22:13:00.376Z,1.00
2022-07-28T22:15:27.493Z,1.25
2022-07-28T22:17:54.552Z,1.30
2022-07-28T22:20:21.513Z,1.00
2022-07-28T22:22:48.650Z,0.80
2022-07-28T22:25:15.767Z,1.17
2022-07-28T22:27:42.811Z,1.10
2022-07-28T22:30:10.239Z,1.17
2022-07-28T22:32:37.189Z,1.13
2022-07-28T22:35:04.434Z,1.10
2022-07-28T22:37:31.383Z,1.00
2022-07-28T22:39:58.384Z,1.35
2022-07-28T22:42:25.297Z,1.17
2022-07-28T22:44:52.287Z,1.38
2022-07-28T22:47:19.419Z,1.20
2022-07-28T22:49:46.494Z,5.05
2022-07-28T22:52:13.682Z,2.22
2022-07-28T22:54:41.083Z,1.27
2022-07-28T22:57:08.119Z,1.48
2022-07-28T22:59:38.625Z,1.40
2022-07-28T23:02:07.691Z,1.30
2022-07-28T23:04:37.078Z,1.25
2022-07-28T23:07:04.276Z,1.45
2022-07-28T23:12:06.131Z,2.55
2022-07-28T23:14:33.352Z,1.70
2022-07-28T23:17:00.265Z,1.60
2022-07-28T23:19:27.400Z,1.30
2022-07-28T23:21:54.532Z,3.60
2022-07-28T23:24:21.665Z,2.10
2022-07-28T23:26:48.719Z,1.67
2022-07-28T23:29:15.696Z,1.38
2022-07-28T23:31:42.754Z,1.60
2022-07-28T23:34:09.969Z,1.58
2022-07-28T23:36:37.071Z,1.75
2022-07-28T23:39:04.180Z,1.65
2022-07-28T23:41:31.161Z,1.30
2022-07-28T23:43:58.184Z,1.27
2022-07-28T23:46:25.342Z,1.42
2022-07-28T23:48:52.660Z,1.50
2022-07-28T23:51:21.321Z,1.80
2022-07-28T23:53:55.846Z,1.40
2022-07-28T23:56:23.494Z,2.03
2022-07-28T23:58:50.674Z,1.65
